Terminal Aerodrome Forecast
Issued by NWS Duluth, MN

Home | Current Version | Previous Version | Text Only | Print | Product List | Glossary On
Versions: 1 2 3 4 5 6 7 8 9 10 11 12 13 14 15 16 17 18
122
FTUS43 KDLH 280738 AAA
TAFDLH
TAF AMD
KDLH 280738Z 2808/2906 27003KT 1/2SM FG BKN002
      TEMPO 2808/2812 1/4SM FG VV002
     FM281500 16005KT P6SM SCT010
     FM281800 17008KT P6SM SCT030
     FM282100 12007KT P6SM SCT035 BKN150=

USA.gov is the U.S. government's official web portal to all federal, state and local government web resources and services.